Terminal Aerodrome Forecast
Issued by NWS

Home | Current Version | Previous Version | Text Only | Print | Product List | Glossary On
Versions: 1 2 3 4 5 6 7 8 9 10 11 12 13 14 15 16 17 18 19 20 21 22 23 24 25 26 27 28 29 30 31 32 33 34 35 36
000
FTUS45 KGJT 221816 AAB
TAFEGE
TAF AMD
KEGE 221816Z 2218/2318 09005KT P6SM VCSH SCT015 BKN060
     FM221900 27005KT P6SM VCSH SCT050 BKN090
     FM230200 03005KT P6SM BKN090
     FM230600 08006KT P6SM SCT090 SCT150
     FM231200 VRB03KT P6SM SCT090=

USA.gov is the U.S. government's official web portal to all federal, state and local government web resources and services.